Time;durP1;ratioP1;P1;durP2;ratioP2;P2;SDS_P1;SDS_P2;PMS_P1;PMS_P2;Temp;Humidity;BMP_temperature;BMP_pressure;BME280_temperature;BME280_humidity;BME280_pressure;Samples;Min_cycle;Max_cycle;Signal;HPM_P1;HPM_P2
2022/08/11 00:02:25;;;;;;;;;;;;;;;17.64;47.82;100617.47;5073435;28;1013;-53
2022/08/11 00:04:50;;;;;;;;;;;;;;;17.26;48.72;100617.94;5071343;28;970;-55
2022/08/11 00:07:16;;;;;;;;;;;;;;;17.06;48.39;100630.66;5057227;28;1056;-53
2022/08/11 00:09:41;;;;;;;;;;;;;;;17.03;47.76;100630.41;5055906;28;1199;-53
2022/08/11 00:12:14;;;;;;;;;;;;;;;16.98;47.41;100624.91;5073615;28;1025;-51
2022/08/11 00:14:40;;;;;;;;;;;;;;;16.98;47.17;100622.97;5057351;28;1902;-53
2022/08/11 00:17:06;;;;;;;;;;;;;;;16.90;46.92;100632.63;5048715;28;1087;-53
2022/08/11 00:19:33;;;;;;;;;;;;;;;16.93;46.87;100637.56;5070068;28;1071;-53
2022/08/11 00:21:59;;;;;;;;;;;;;;;16.89;46.91;100624.69;5068301;28;1051;-55
2022/08/11 00:24:24;;;;;;;;;;;;;;;16.92;46.43;100624.94;5069908;28;985;-54
2022/08/11 00:26:51;;;;;;;;;;;;;;;16.88;46.74;100620.25;5040274;28;1188;-53
2022/08/11 00:29:16;;;;;;;;;;;;;;;16.85;46.74;100626.31;5051163;28;1005;-53
2022/08/11 00:31:49;;;;;;;;;;;;;;;16.80;46.76;100629.88;5051172;28;1124;-54
2022/08/11 00:34:16;;;;;;;;;;;;;;;16.81;46.79;100616.97;5066601;28;1909;-54
2022/08/11 00:36:44;;;;;;;;;;;;;;;17.04;47.21;100627.38;5051495;28;1164;-52
2022/08/11 00:39:10;;;;;;;;;;;;;;;17.51;48.82;100629.91;5071439;28;1246;-52
2022/08/11 00:41:43;;;;;;;;;;;;;;;17.14;48.80;100621.03;5050986;28;1057;-52
2022/08/11 00:44:16;;;;;;;;;;;;;;;17.06;48.00;100622.41;5052695;28;1171;-52
2022/08/11 00:46:45;;;;;;;;;;;;;;;17.00;47.84;100620.78;5057113;28;1025;-51
2022/08/11 00:49:23;;;;;;;;;;;;;;;17.01;47.29;100622.44;5054646;28;1207;-51
2022/08/11 00:51:51;;;;;;;;;;;;;;;16.97;47.13;100626.00;5043311;28;1061;-50
2022/08/11 00:54:17;;;;;;;;;;;;;;;16.88;47.05;100644.97;5066676;28;1914;-49
2022/08/11 00:56:42;;;;;;;;;;;;;;;16.96;46.63;100644.44;5057100;28;1322;-50
2022/08/11 00:59:13;;;;;;;;;;;;;;;16.89;46.83;100638.41;5061865;28;1254;-48
2022/08/11 01:01:48;;;;;;;;;;;;;;;16.90;46.43;100654.59;5064639;28;1151;-49
2022/08/11 01:04:13;;;;;;;;;;;;;;;18.06;47.62;100657.34;5068443;28;997;-45
2022/08/11 01:06:57;;;;;;;;;;;;;;;17.28;48.87;100649.53;5066975;28;1060;-50
2022/08/11 01:09:34;;;;;;;;;;;;;;;17.15;48.28;100647.38;5063134;28;998;-47
2022/08/11 01:12:19;;;;;;;;;;;;;;;17.05;47.86;100650.16;5042828;28;1195;-46
2022/08/11 01:15:02;;;;;;;;;;;;;;;17.04;47.19;100656.75;5070212;28;1913;-48
2022/08/11 01:17:31;;;;;;;;;;;;;;;16.97;47.16;100637.84;5066329;28;958;-51
2022/08/11 01:20:15;;;;;;;;;;;;;;;17.01;46.83;100649.06;5077344;28;981;-47
2022/08/11 01:22:59;;;;;;;;;;;;;;;16.98;46.66;100639.47;5067910;28;1013;-52
2022/08/11 01:25:37;;;;;;;;;;;;;;;17.75;47.53;100641.03;5075472;28;1147;-52
2022/08/11 01:28:02;;;;;;;;;;;;;;;17.30;48.41;100648.44;5064718;28;993;-54
2022/08/11 01:30:43;;;;;;;;;;;;;;;17.13;48.30;100641.34;5062397;28;1060;-53
2022/08/11 01:33:21;;;;;;;;;;;;;;;17.13;47.48;100633.09;5073891;28;1037;-51
2022/08/11 01:35:46;;;;;;;;;;;;;;;17.03;47.38;100639.47;5052318;28;1909;-49
2022/08/11 01:38:30;;;;;;;;;;;;;;;17.03;47.19;100633.97;5063758;28;1275;-50
2022/08/11 01:41:05;;;;;;;;;;;;;;;16.99;46.81;100629.31;5067950;28;978;-48
2022/08/11 01:46:31;;;;;;;;;;;;;;;16.95;46.55;100612.56;5074946;28;1100;-46
2022/08/11 01:49:11;;;;;;;;;;;;;;;17.76;47.55;100599.50;5058176;28;1080;-48
2022/08/11 01:51:44;;;;;;;;;;;;;;;17.31;48.20;100604.19;5056372;28;1211;-49
2022/08/11 01:54:39;;;;;;;;;;;;;;;17.12;48.01;100592.19;5069225;28;1055;-50
2022/08/11 01:57:15;;;;;;;;;;;;;;;17.07;47.20;100585.59;5046918;28;1310;-48
2022/08/11 01:59:48;;;;;;;;;;;;;;;17.02;47.20;100580.13;5049493;28;1009;-49
2022/08/11 02:02:17;;;;;;;;;;;;;;;17.04;46.89;100594.41;5053602;28;915;-51
2022/08/11 02:04:54;;;;;;;;;;;;;;;16.97;46.99;100596.63;5074970;28;954;-50
2022/08/11 02:07:39;;;;;;;;;;;;;;;17.04;46.49;100599.91;5051674;28;1112;-49
2022/08/11 02:13:13;;;;;;;;;;;;;;;16.94;46.28;100608.16;5063894;28;1171;-50
2022/08/11 02:15:42;;;;;;;;;;;;;;;16.93;46.52;100607.34;5066601;28;1907;-50
2022/08/11 02:18:17;;;;;;;;;;;;;;;16.87;46.31;100608.47;5048720;28;1148;-50
2022/08/11 02:23:38;;;;;;;;;;;;;;;16.86;46.33;100615.03;5072867;28;1013;-46
2022/08/11 02:26:09;;;;;;;;;;;;;;;18.03;47.38;100609.22;5062780;28;863;-50
2022/08/11 02:28:44;;;;;;;;;;;;;;;17.33;48.29;100606.63;5072384;28;1024;-51
2022/08/11 02:33:56;;;;;;;;;;;;;;;16.96;47.80;100618.88;5075534;28;1005;-51
2022/08/11 02:36:24;;;;;;;;;;;;;;;17.06;47.01;100621.59;5058377;28;1909;-51
2022/08/11 02:38:59;;;;;;;;;;;;;;;17.00;46.86;100631.78;5073042;28;949;-48
2022/08/11 02:44:32;;;;;;;;;;;;;;;16.89;46.77;100619.19;5058723;28;1282;-50
2022/08/11 02:47:13;;;;;;;;;;;;;;;17.41;47.33;100620.59;5061155;28;1057;-51
2022/08/11 02:49:54;;;;;;;;;;;;;;;17.56;48.92;100616.94;5062469;28;1365;-51
2022/08/11 02:52:23;;;;;;;;;;;;;;;17.26;48.55;100623.44;5063621;28;1206;-51
2022/08/11 02:54:49;;;;;;;;;;;;;;;17.10;47.98;100626.25;5046305;28;1946;-48
2022/08/11 02:57:19;;;;;;;;;;;;;;;17.19;47.42;100636.66;5071933;28;1013;-50
2022/08/11 03:00:08;;;;;;;;;;;;;;;17.03;47.29;100636.72;5070479;28;1032;-50
2022/08/11 03:02:56;;;;;;;;;;;;;;;16.98;47.02;100633.97;5055680;28;1361;-50
2022/08/11 03:05:21;;;;;;;;;;;;;;;16.95;46.92;100629.03;5069392;28;1218;-52
2022/08/11 03:08:05;;;;;;;;;;;;;;;17.01;46.56;100638.94;5074198;28;1096;-52
2022/08/11 03:10:42;;;;;;;;;;;;;;;16.99;46.59;100632.88;5061653;28;1033;-51
2022/08/11 03:19:02;;;;;;;;;;;;;;;17.25;48.58;100622.63;5057204;28;1210;-56
2022/08/11 03:21:28;;;;;;;;;;;;;;;17.23;47.63;100624.81;5044432;28;1004;-53
2022/08/11 03:24:20;;;;;;;;;;;;;;;17.13;47.44;100635.84;5046365;28;1069;-55
2022/08/11 03:26:53;;;;;;;;;;;;;;;17.10;47.08;100634.47;5031842;28;1130;-55
2022/08/11 03:29:25;;;;;;;;;;;;;;;17.02;47.16;100631.50;5067253;28;969;-55
2022/08/11 03:32:09;;;;;;;;;;;;;;;17.00;46.92;100631.78;5055742;28;1176;-55
2022/08/11 03:34:36;;;;;;;;;;;;;;;16.98;46.80;100635.91;5076020;28;1906;-54
2022/08/11 03:37:08;;;;;;;;;;;;;;;16.95;46.62;100634.53;5047749;28;986;-54
2022/08/11 03:39:36;;;;;;;;;;;;;;;16.88;46.77;100637.56;5065520;28;930;-52
2022/08/11 03:42:01;;;;;;;;;;;;;;;16.89;46.43;100633.72;5076288;28;1147;-57
2022/08/11 03:44:32;;;;;;;;;;;;;;;16.85;46.75;100645.53;5069028;28;1167;-52
2022/08/11 03:47:04;;;;;;;;;;;;;;;16.82;46.50;100648.84;5046031;28;1084;-55
2022/08/11 03:49:32;;;;;;;;;;;;;;;16.85;46.39;100646.34;5059447;28;1505;-55
2022/08/11 03:52:05;;;;;;;;;;;;;;;16.81;46.43;100645.25;5066605;28;1191;-56
2022/08/11 03:54:31;;;;;;;;;;;;;;;16.81;46.56;100645.25;5043932;28;1979;-56
2022/08/11 03:57:07;;;;;;;;;;;;;;;16.80;46.25;100645.53;5047536;28;1202;-55
2022/08/11 03:59:33;;;;;;;;;;;;;;;16.79;46.37;100641.97;5053676;28;1096;-52
2022/08/11 04:02:14;;;;;;;;;;;;;;;16.77;46.58;100639.50;5042538;28;1235;-55
2022/08/11 04:04:43;;;;;;;;;;;;;;;16.72;46.45;100641.44;5040745;28;950;-52
2022/08/11 04:07:11;;;;;;;;;;;;;;;16.61;46.52;100637.88;5047494;28;1172;-53
2022/08/11 04:09:52;;;;;;;;;;;;;;;16.69;46.56;100642.81;5049753;28;1008;-54
2022/08/11 04:12:24;;;;;;;;;;;;;;;16.74;46.22;100631.00;5051291;28;1060;-54
2022/08/11 04:17:44;;;;;;;;;;;;;;;17.41;48.27;100631.59;5041366;28;1998;-54
2022/08/11 04:20:22;;;;;;;;;;;;;;;17.14;48.30;100647.66;5054998;28;2047;-54
2022/08/11 04:23:10;;;;;;;;;;;;;;;16.97;47.82;100643.34;5053065;28;2233;-54
2022/08/11 04:25:54;;;;;;;;;;;;;;;16.90;47.55;100637.28;5037893;28;2063;-52
2022/08/11 04:28:23;;;;;;;;;;;;;;;16.94;46.94;100646.63;5041911;28;1777;-52
2022/08/11 04:30:48;;;;;;;;;;;;;;;16.90;46.80;100637.28;5042423;28;1844;-54
2022/08/11 04:33:33;;;;;;;;;;;;;;;16.90;47.08;100626.31;5039653;28;1199;-55
2022/08/11 04:36:02;;;;;;;;;;;;;;;17.51;48.32;100635.41;5043096;28;2044;-54
2022/08/11 04:38:31;;;;;;;;;;;;;;;17.15;48.59;100632.81;5040972;28;1107;-55
2022/08/11 04:41:15;;;;;;;;;;;;;;;17.03;47.82;100635.91;5037681;28;1099;-53
2022/08/11 04:43:50;;;;;;;;;;;;;;;16.95;47.72;100645.53;5038753;28;1172;-55
2022/08/11 04:46:17;;;;;;;;;;;;;;;16.93;47.19;100634.81;5039255;28;1208;-53
2022/08/11 05:02:43;;;;;;;;;;;;;;;16.75;46.82;100632.66;5059176;28;1165;-53
2022/08/11 05:08:05;;;;;;;;;;;;;;;16.80;46.70;100615.31;5061912;28;1109;-52
2022/08/11 05:10:44;;;;;;;;;;;;;;;17.40;47.22;100627.22;5056308;28;986;-54
2022/08/11 05:35:27;;;;;;;;;;;;;;;16.86;46.80;100648.00;5046416;28;1907;-50
2022/08/11 05:57:03;;;;;;;;;;;;;;;17.81;49.69;100667.41;5053635;28;1076;-55
2022/08/11 05:59:28;;;;;;;;;;;;;;;17.76;49.88;100672.94;5070766;28;961;-54
2022/08/11 06:01:59;;;;;;;;;;;;;;;17.69;50.59;100670.50;5075082;28;1084;-51
2022/08/11 06:04:24;;;;;;;;;;;;;;;17.64;50.66;100667.75;5072840;28;1135;-52
2022/08/11 06:06:56;;;;;;;;;;;;;;;17.60;51.20;100678.53;5077156;28;1044;-52
2022/08/11 06:09:22;;;;;;;;;;;;;;;17.56;51.36;100673.88;5075399;28;1147;-49
2022/08/11 06:11:48;;;;;;;;;;;;;;;17.50;51.78;100664.00;5078191;28;1096;-52
2022/08/11 06:14:14;;;;;;;;;;;;;;;17.51;51.96;100669.22;5060526;28;1123;-54
2022/08/11 06:16:42;;;;;;;;;;;;;;;17.45;52.46;100671.16;5065190;28;1967;-52
2022/08/11 06:19:08;;;;;;;;;;;;;;;17.43;52.65;100672.53;5072108;28;953;-53
2022/08/11 06:21:34;;;;;;;;;;;;;;;17.43;52.82;100662.38;5068658;28;1246;-56
2022/08/11 06:24:02;;;;;;;;;;;;;;;17.39;53.04;100665.97;5056101;28;1056;-52
2022/08/11 06:26:28;;;;;;;;;;;;;;;17.37;53.08;100665.44;5074099;28;1155;-55
2022/08/11 06:28:55;;;;;;;;;;;;;;;17.35;53.08;100678.63;5066469;28;949;-54
2022/08/11 06:31:23;;;;;;;;;;;;;;;17.35;53.50;100659.38;5049817;28;1080;-55
2022/08/11 06:33:49;;;;;;;;;;;;;;;17.32;53.36;100659.94;5069937;28;1228;-54
2022/08/11 06:36:27;;;;;;;;;;;;;;;17.28;53.80;100655.03;5068769;28;1967;-55
2022/08/11 06:38:53;;;;;;;;;;;;;;;17.23;53.65;100656.97;5050099;28;1200;-52
2022/08/11 06:41:29;;;;;;;;;;;;;;;17.21;53.85;100654.50;5060622;28;1242;-54
2022/08/11 06:44:01;;;;;;;;;;;;;;;17.24;53.84;100661.38;5060760;28;1207;-54
2022/08/11 06:46:31;;;;;;;;;;;;;;;17.19;54.10;100655.88;5059364;28;1262;-56
2022/08/11 06:48:56;;;;;;;;;;;;;;;17.14;54.37;100659.47;5053084;28;1255;-54
2022/08/11 06:51:21;;;;;;;;;;;;;;;17.17;54.16;100671.84;5054101;28;1230;-55
2022/08/11 06:53:51;;;;;;;;;;;;;;;17.17;54.51;100671.84;5043995;28;1240;-54
2022/08/11 07:02:13;;;;;;;;;;;;;;;17.13;54.72;100676.25;5060390;28;1120;-51
2022/08/11 07:04:39;;;;;;;;;;;;;;;17.11;54.58;100665.53;5061322;28;1021;-51
2022/08/11 07:16:00;;;;;;;;;;;;;;;17.03;54.71;100675.16;5046831;28;1915;-50
2022/08/11 07:30:04;;;;;;;;;;;;;;;17.05;55.37;100670.19;5050120;28;1304;-51
2022/08/11 07:32:31;;;;;;;;;;;;;;;17.01;55.58;100669.16;5066514;28;1278;-52
2022/08/11 07:35:22;;;;;;;;;;;;;;;17.04;55.38;100676.81;5043768;28;2394;-49
2022/08/11 07:37:52;;;;;;;;;;;;;;;16.99;55.45;100685.06;5066901;28;1773;-53
2022/08/11 07:40:21;;;;;;;;;;;;;;;16.97;55.57;100681.78;5070718;28;1835;-49
2022/08/11 07:42:47;;;;;;;;;;;;;;;16.97;55.52;100676.28;5045941;28;2050;-48
2022/08/11 07:53:25;;;;;;;;;;;;;;;17.00;55.04;100681.22;5056787;28;1175;-57
2022/08/11 07:55:50;;;;;;;;;;;;;;;16.97;55.12;100692.78;5057698;28;1906;-48
2022/08/11 08:20:11;;;;;;;;;;;;;;;16.85;55.40;100659.25;5061719;28;2398;-53
2022/08/11 08:22:36;;;;;;;;;;;;;;;16.87;55.48;100666.13;5039679;28;1101;-49
2022/08/11 08:25:02;;;;;;;;;;;;;;;16.90;55.38;100653.75;5062115;28;1199;-56
2022/08/11 08:27:28;;;;;;;;;;;;;;;16.88;55.40;100655.94;5046513;28;1215;-52
2022/08/11 08:32:38;;;;;;;;;;;;;;;16.89;55.24;100646.66;5058751;28;1112;-56
2022/08/11 08:35:03;;;;;;;;;;;;;;;16.85;55.53;100645.53;5042105;28;1913;-53
2022/08/11 08:37:29;;;;;;;;;;;;;;;16.87;55.29;100651.56;5043039;28;1218;-54
2022/08/11 08:39:55;;;;;;;;;;;;;;;16.88;55.49;100647.72;5042279;28;1282;-54
2022/08/11 08:42:27;;;;;;;;;;;;;;;16.87;55.48;100643.31;5035821;28;1259;-54
2022/08/11 08:44:57;;;;;;;;;;;;;;;16.83;55.29;100643.06;5047965;28;1215;-52
2022/08/11 08:47:23;;;;;;;;;;;;;;;16.87;55.18;100644.16;5059529;28;1259;-51
2022/08/11 08:49:49;;;;;;;;;;;;;;;16.86;55.26;100638.94;5043272;28;2394;-57
2022/08/11 08:52:19;;;;;;;;;;;;;;;16.89;55.29;100630.19;5059558;28;1309;-53
2022/08/11 08:54:44;;;;;;;;;;;;;;;16.89;55.34;100636.47;5057636;28;1906;-51
2022/08/11 08:57:10;;;;;;;;;;;;;;;16.81;55.52;100628.78;5040731;28;1247;-49
2022/08/11 08:59:37;;;;;;;;;;;;;;;16.83;55.48;100634.00;5043892;28;1187;-52
2022/08/11 09:02:03;;;;;;;;;;;;;;;16.85;55.38;100623.56;5042523;28;1243;-55
2022/08/11 09:04:29;;;;;;;;;;;;;;;16.86;55.67;100625.22;5047079;28;1255;-53
2022/08/11 09:06:58;;;;;;;;;;;;;;;16.83;55.51;100625.75;5050807;28;900;-56
2022/08/11 09:09:23;;;;;;;;;;;;;;;16.85;55.37;100629.88;5057439;28;814;-55
2022/08/11 09:11:49;;;;;;;;;;;;;;;16.82;55.72;100626.88;5050932;28;1015;-55
2022/08/11 09:14:15;;;;;;;;;;;;;;;16.85;55.71;100620.81;5064624;28;1028;-54
2022/08/11 09:16:40;;;;;;;;;;;;;;;16.84;55.47;100616.41;5068918;28;1968;-55
2022/08/11 09:19:06;;;;;;;;;;;;;;;16.82;55.43;100619.44;5062908;28;1804;-55
2022/08/11 09:21:31;;;;;;;;;;;;;;;16.85;55.69;100615.31;5069265;28;985;-57
2022/08/11 09:26:58;;;;;;;;;;;;;;;16.81;55.74;100617.78;5066376;28;1167;-55
2022/08/11 09:29:23;;;;;;;;;;;;;;;16.80;55.49;100615.31;5072544;28;1088;-49
2022/08/11 09:31:49;;;;;;;;;;;;;;;17.04;56.48;100621.03;5050161;28;1033;-50
2022/08/11 09:34:14;;;;;;;;;;;;;;;17.22;57.36;100619.59;5053586;28;1131;-54
2022/08/11 09:42:07;;;;;;;;;;;;;;;17.03;57.22;100622.97;5058396;28;946;-55
2022/08/11 09:44:48;;;;;;;;;;;;;;;17.05;56.68;100612.50;5056985;28;957;-51
2022/08/11 09:47:29;;;;;;;;;;;;;;;16.98;56.90;100620.22;5050937;28;1018;-55
2022/08/11 09:49:58;;;;;;;;;;;;;;;17.01;56.52;100605.97;5073100;28;2504;-57
2022/08/11 09:52:24;;;;;;;;;;;;;;;16.97;56.45;100598.53;5066570;28;1473;-55
2022/08/11 09:54:49;;;;;;;;;;;;;;;16.99;56.20;100616.41;5060118;28;1926;-55
2022/08/11 10:00:01;;;;;;;;;;;;;;;17.00;56.26;100603.47;5069265;28;1045;-56
2022/08/11 10:02:27;;;;;;;;;;;;;;;16.97;56.01;100598.53;5056160;28;1041;-52
2022/08/11 10:07:00;;;;;;;;;;;;;;;16.95;56.09;100601.56;5041676;28;1046;-54
2022/08/11 10:07:39;;;;;;;;;;;;;;;16.98;55.87;100601.00;5045526;28;1250;-54
2022/08/11 10:10:05;;;;;;;;;;;;;;;16.96;56.04;100616.13;5063300;28;1084;-54
2022/08/11 10:12:36;;;;;;;;;;;;;;;16.95;56.26;100617.25;5052490;28;1076;-52
2022/08/11 10:20:32;;;;;;;;;;;;;;;16.92;56.10;100597.47;5073493;28;2611;-56
2022/08/11 10:28:26;;;;;;;;;;;;;;;16.95;56.33;100601.56;5061060;28;1049;-54
2022/08/11 10:34:09;;;;;;;;;;;;;;;16.96;56.14;100603.22;5044387;28;1058;-55
2022/08/11 10:36:31;;;;;;;;;;;;;;;16.97;56.24;100599.38;5053545;28;2006;-53
2022/08/11 10:38:57;;;;;;;;;;;;;;;16.96;56.23;100607.88;5052698;28;1037;-54
2022/08/11 10:44:06;;;;;;;;;;;;;;;16.97;56.10;100609.53;5071810;28;1104;-52
2022/08/11 10:49:16;;;;;;;;;;;;;;;16.99;56.34;100608.16;5074493;28;2294;-51
2022/08/11 10:59:53;;;;;;;;;;;;;;;16.95;56.16;100595.28;5056186;28;1068;-51
2022/08/11 11:02:19;;;;;;;;;;;;;;;16.98;56.12;100589.22;5069283;28;969;-52
2022/08/11 11:04:47;;;;;;;;;;;;;;;16.98;56.28;100583.72;5069472;28;1048;-55
2022/08/11 11:07:18;;;;;;;;;;;;;;;16.98;56.12;100601.00;5070619;28;973;-54
2022/08/11 11:09:49;;;;;;;;;;;;;;;16.97;56.18;100582.91;5052827;28;1013;-51
2022/08/11 11:17:55;;;;;;;;;;;;;;;16.97;56.17;100580.16;5062998;28;1314;-54
2022/08/11 11:20:24;;;;;;;;;;;;;;;16.93;56.18;100582.63;5059491;28;1849;-53
2022/08/11 11:22:51;;;;;;;;;;;;;;;16.98;56.23;100579.03;5058323;28;1053;-50
2022/08/11 11:25:16;;;;;;;;;;;;;;;16.99;56.22;100568.88;5063192;28;1096;-54
2022/08/11 11:27:42;;;;;;;;;;;;;;;16.98;56.38;100576.28;5061621;28;1231;-49
2022/08/11 11:30:09;;;;;;;;;;;;;;;17.01;56.08;100584.00;5061095;28;1262;-49
2022/08/11 11:32:34;;;;;;;;;;;;;;;16.96;56.51;100572.16;5060581;28;1179;-52
2022/08/11 11:35:03;;;;;;;;;;;;;;;17.01;56.07;100581.25;5061336;28;1910;-49
2022/08/11 11:37:29;;;;;;;;;;;;;;;16.99;56.35;100580.69;5062501;28;1163;-53
2022/08/11 11:39:56;;;;;;;;;;;;;;;17.00;56.43;100581.50;5041536;28;1196;-48
2022/08/11 11:42:21;;;;;;;;;;;;;;;17.01;56.29;100567.50;5042231;28;1271;-48
2022/08/11 11:44:47;;;;;;;;;;;;;;;16.98;56.46;100580.97;5045420;28;1175;-57
2022/08/11 11:47:13;;;;;;;;;;;;;;;16.97;56.16;100571.06;5069458;28;1147;-51
2022/08/11 11:49:39;;;;;;;;;;;;;;;16.99;56.40;100566.13;5069034;28;2524;-53
2022/08/11 11:52:05;;;;;;;;;;;;;;;16.93;56.54;100571.66;5070315;28;1148;-52
2022/08/11 11:54:33;;;;;;;;;;;;;;;16.99;56.10;100568.88;5068491;28;1056;-48
2022/08/11 12:01:14;;;;;;;;;;;;;;;16.98;56.48;100567.25;5062300;28;1984;-54
2022/08/11 12:02:34;;;;;;;;;;;;;;;16.99;56.19;100564.22;5066426;28;808;-51
2022/08/11 12:05:00;;;;;;;;;;;;;;;17.01;56.21;100562.00;5064289;28;889;-51
2022/08/11 12:10:10;;;;;;;;;;;;;;;17.03;56.21;100565.28;5064046;28;874;-52
2022/08/11 12:15:20;;;;;;;;;;;;;;;17.05;56.18;100565.00;5049193;28;1985;-49
2022/08/11 12:17:45;;;;;;;;;;;;;;;17.01;56.32;100562.00;5067534;28;910;-50
2022/08/11 12:20:13;;;;;;;;;;;;;;;17.01;56.25;100570.25;5063533;28;1917;-49
2022/08/11 12:28:07;;;;;;;;;;;;;;;17.09;56.26;100569.66;5051868;28;1093;-53
2022/08/11 12:30:33;;;;;;;;;;;;;;;17.03;56.33;100569.97;5050503;28;1298;-52
2022/08/11 12:32:58;;;;;;;;;;;;;;;17.02;56.38;100580.13;5072903;28;1201;-51
2022/08/11 12:35:24;;;;;;;;;;;;;;;17.05;56.40;100568.56;5066375;28;1987;-53
2022/08/11 12:38:11;;;;;;;;;;;;;;;17.06;56.21;100572.97;5074454;28;1076;-52
2022/08/11 12:46:30;;;;;;;;;;;;;;;17.08;56.20;100573.50;5071897;28;1116;-48
2022/08/11 12:51:57;;;;;;;;;;;;;;;17.02;56.56;100569.13;5047705;28;974;-49
2022/08/11 12:54:33;;;;;;;;;;;;;;;17.04;56.38;100586.16;5052643;28;1259;-51
2022/08/11 13:05:16;;;;;;;;;;;;;;;17.06;56.29;100581.19;5044677;28;1128;-49
2022/08/11 13:07:42;;;;;;;;;;;;;;;17.06;56.29;100570.22;5068053;28;996;-51
2022/08/11 13:10:08;;;;;;;;;;;;;;;17.04;56.24;100571.59;5072336;28;989;-45
2022/08/11 13:12:48;;;;;;;;;;;;;;;17.05;56.42;100574.06;5061925;28;890;-53
2022/08/11 13:15:16;;;;;;;;;;;;;;;17.08;56.23;100570.78;5047766;28;1975;-51
2022/08/11 13:17:41;;;;;;;;;;;;;;;17.06;56.08;100572.97;5055710;28;1171;-52
2022/08/11 13:20:07;;;;;;;;;;;;;;;17.08;56.09;100572.69;5060571;28;1749;-54
2022/08/11 13:22:33;;;;;;;;;;;;;;;17.12;56.26;100561.97;5042962;28;1473;-48
2022/08/11 13:24:58;;;;;;;;;;;;;;;17.07;56.22;100560.06;5061943;28;1325;-49
2022/08/11 13:27:24;;;;;;;;;;;;;;;17.06;55.99;100563.91;5058937;28;1356;-52
2022/08/11 13:29:51;;;;;;;;;;;;;;;17.08;55.91;100562.53;5040756;28;1243;-51
2022/08/11 13:32:17;;;;;;;;;;;;;;;17.14;55.88;100565.22;5043287;28;1223;-52
2022/08/11 13:34:42;;;;;;;;;;;;;;;17.13;55.96;100560.84;5041824;28;1247;-53
2022/08/11 13:37:08;;;;;;;;;;;;;;;17.08;55.83;100565.28;5041323;28;1913;-50
2022/08/11 13:39:34;;;;;;;;;;;;;;;17.10;55.84;100562.25;5040978;28;1247;-51
2022/08/11 13:41:59;;;;;;;;;;;;;;;17.07;56.09;100560.06;5040557;28;1263;-50
2022/08/11 13:44:26;;;;;;;;;;;;;;;17.09;56.01;100568.84;5061451;28;1246;-46
2022/08/11 13:47:18;;;;;;;;;;;;;;;17.07;56.20;100562.81;5060830;28;1238;-53
2022/08/11 13:49:43;;;;;;;;;;;;;;;17.02;55.95;100555.41;5054394;28;1329;-52
2022/08/11 13:52:11;;;;;;;;;;;;;;;17.03;56.00;100565.28;5040530;28;1247;-50
2022/08/11 13:54:40;;;;;;;;;;;;;;;17.08;55.72;100570.78;5057851;28;1299;-44
2022/08/11 13:57:06;;;;;;;;;;;;;;;17.03;56.19;100562.53;5060010;28;1913;-46
2022/08/11 13:59:31;;;;;;;;;;;;;;;17.09;55.78;100566.09;5061193;28;1227;-51
2022/08/11 14:02:02;;;;;;;;;;;;;;;17.09;55.90;100566.09;5059312;28;1234;-54
2022/08/11 14:04:38;;;;;;;;;;;;;;;17.04;55.82;100572.44;5046951;28;1064;-54
2022/08/11 14:07:05;;;;;;;;;;;;;;;17.05;55.88;100568.56;5069687;28;985;-53
2022/08/11 14:09:31;;;;;;;;;;;;;;;17.06;55.89;100567.47;5063718;28;992;-53
2022/08/11 14:14:42;;;;;;;;;;;;;;;17.05;55.76;100567.75;5051303;28;1135;-53
2022/08/11 14:17:08;;;;;;;;;;;;;;;17.05;55.90;100565.81;5073359;28;1914;-51
2022/08/11 14:19:40;;;;;;;;;;;;;;;17.05;55.89;100560.31;5056448;28;1365;-51
2022/08/11 14:22:06;;;;;;;;;;;;;;;17.06;55.74;100572.97;5078254;28;1029;-52
2022/08/11 14:24:31;;;;;;;;;;;;;;;17.04;55.97;100569.69;5047853;28;883;-51
2022/08/11 14:26:57;;;;;;;;;;;;;;;17.03;55.88;100569.97;5049202;28;1203;-49
2022/08/11 14:29:24;;;;;;;;;;;;;;;17.02;55.99;100569.13;5054213;28;993;-45
2022/08/11 14:32:01;;;;;;;;;;;;;;;17.01;55.74;100573.00;5048702;28;1017;-48
2022/08/11 14:34:28;;;;;;;;;;;;;;;16.99;56.07;100564.22;5048009;28;1076;-49
2022/08/11 14:36:58;;;;;;;;;;;;;;;17.01;55.85;100566.66;5047480;28;1918;-47
2022/08/11 14:39:27;;;;;;;;;;;;;;;17.01;55.65;100566.66;5047357;28;1044;-49
2022/08/11 14:47:26;;;;;;;;;;;;;;;17.00;56.01;100581.50;5063886;28;1112;-50
2022/08/11 14:49:55;;;;;;;;;;;;;;;17.03;55.70;100578.22;5044065;28;1231;-48
2022/08/11 14:52:20;;;;;;;;;;;;;;;17.00;55.76;100579.59;5043357;28;1219;-49
2022/08/11 14:57:31;;;;;;;;;;;;;;;17.00;55.66;100576.84;5065669;28;1120;-51
2022/08/11 14:59:57;;;;;;;;;;;;;;;17.00;55.69;100560.38;5060344;28;1215;-53
2022/08/11 15:05:06;;;;;;;;;;;;;;;16.98;55.58;100564.50;5059922;28;1111;-51
2022/08/11 15:07:32;;;;;;;;;;;;;;;16.97;55.78;100568.34;5043436;28;1290;-51
2022/08/11 15:09:58;;;;;;;;;;;;;;;16.98;55.87;100570.78;5043516;28;1238;-44
2022/08/11 15:12:23;;;;;;;;;;;;;;;16.99;55.70;100564.22;5062116;28;1310;-52
2022/08/11 15:17:33;;;;;;;;;;;;;;;16.96;55.99;100564.78;5059725;28;1123;-48
2022/08/11 15:25:33;;;;;;;;;;;;;;;16.99;55.60;100563.41;5063765;28;1123;-50
2022/08/11 15:39:00;;;;;;;;;;;;;;;16.96;55.64;100564.78;5067929;28;2395;-51
2022/08/11 15:45:47;;;;;;;;;;;;;;;16.97;55.57;100565.59;5070810;28;2052;-48
2022/08/11 15:47:24;;;;;;;;;;;;;;;16.99;55.76;100558.72;5049743;28;1814;-55
2022/08/11 15:49:50;;;;;;;;;;;;;;;16.97;55.81;100563.69;5065119;28;1916;-51
2022/08/11 15:52:17;;;;;;;;;;;;;;;16.97;55.59;100560.09;5069856;28;958;-53
2022/08/11 15:54:42;;;;;;;;;;;;;;;16.98;55.77;100573.53;5051781;28;1093;-53
2022/08/11 15:57:08;;;;;;;;;;;;;;;16.99;55.49;100574.38;5066684;28;1974;-60
2022/08/11 16:05:03;;;;;;;;;;;;;;;16.96;55.76;100573.00;5057846;28;1064;-54
2022/08/11 16:07:33;;;;;;;;;;;;;;;16.95;55.69;100571.38;5067772;28;957;-56
2022/08/11 16:10:01;;;;;;;;;;;;;;;16.98;55.58;100570.78;5069909;28;1171;-55
2022/08/11 16:12:27;;;;;;;;;;;;;;;16.92;55.94;100571.94;5068229;28;1020;-56
2022/08/11 16:17:39;;;;;;;;;;;;;;;16.99;55.48;100575.19;5054793;28;1029;-57
2022/08/11 16:20:06;;;;;;;;;;;;;;;16.98;55.55;100568.03;5074551;28;1961;-55
2022/08/11 16:22:37;;;;;;;;;;;;;;;16.88;55.50;100565.31;5070117;28;1005;-55
2022/08/11 16:25:03;;;;;;;;;;;;;;;16.91;55.78;100568.38;5073217;28;988;-56
2022/08/11 16:27:28;;;;;;;;;;;;;;;16.91;55.83;100573.88;5055004;28;1120;-55
2022/08/11 16:29:54;;;;;;;;;;;;;;;16.91;55.67;100578.53;5056904;28;1077;-56
2022/08/11 16:32:21;;;;;;;;;;;;;;;16.87;55.73;100589.22;5041595;28;1171;-57
2022/08/11 16:40:21;;;;;;;;;;;;;;;16.90;55.67;100587.84;5064925;28;1021;-56
2022/08/11 16:48:15;;;;;;;;;;;;;;;16.88;55.71;100584.56;5063089;28;989;-57
2022/08/11 16:50:40;;;;;;;;;;;;;;;16.87;55.78;100583.75;5047149;28;1969;-56
2022/08/11 16:53:06;;;;;;;;;;;;;;;16.85;55.54;100580.44;5046815;28;1088;-56
2022/08/11 16:55:32;;;;;;;;;;;;;;;16.86;55.73;100581.28;5064590;28;2013;-55
2022/08/11 17:00:43;;;;;;;;;;;;;;;16.84;55.75;100586.22;5049160;28;1001;-55
2022/08/11 17:14:17;;;;;;;;;;;;;;;16.82;55.82;100582.94;5066331;28;818;-54
2022/08/11 17:16:42;;;;;;;;;;;;;;;16.76;55.75;100582.94;5067132;28;1965;-54
2022/08/11 17:19:17;;;;;;;;;;;;;;;16.78;55.78;100582.66;5052849;28;2451;-57
2022/08/11 17:24:32;;;;;;;;;;;;;;;16.79;55.86;100586.22;5065713;28;1072;-56
2022/08/11 17:26:57;;;;;;;;;;;;;;;16.77;55.81;100586.50;5051696;28;1164;-57
2022/08/11 17:29:31;;;;;;;;;;;;;;;16.75;55.68;100589.53;5055024;28;1088;-57
2022/08/11 17:37:29;;;;;;;;;;;;;;;16.77;55.69;100595.56;5043847;28;1076;-58
2022/08/11 17:39:55;;;;;;;;;;;;;;;16.74;55.75;100596.13;5068997;28;977;-57
2022/08/11 17:50:34;;;;;;;;;;;;;;;16.71;55.84;100601.34;5046677;28;2422;-57
2022/08/11 18:01:11;;;;;;;;;;;;;;;16.67;55.76;100606.56;5056584;28;1068;-56
2022/08/11 18:03:40;;;;;;;;;;;;;;;16.73;55.65;100602.72;5047604;28;997;-56
2022/08/11 18:06:07;;;;;;;;;;;;;;;16.70;55.81;100617.00;5077589;28;1044;-57
